SEIO2: N.Canadian R., Seiling, OK

Data processed at Sun Apr 30 2017 22:29


All information presented herein is the property of the government of the United States of America and may be revised or deleted at any time without prior notice.
Dissemination of this information without the expressed written consent of the Public Affairs Office, Tulsa District U.S. Army Corps of Engineers is strictly prohibited.
These data are gathered electronically and, as presented, have not undergone any form of quality control. These data are not guaranteed to be valid or correct.
Go to home page.
Go to station list.
Go to station map.

Upstream stations:

Downstream station:
Previous Day
Next Day
Current Day
    
SHEF ID:       SEIO2     North Canadian River near Seilin
STATION TYPE:  

               PRECIP     STAGE  STAGE(2)  RIV-FLOW  BAT-LOAD
                   in        ft        ft       cfs      volt
              Ccp-Rev   Ccp-Rev   Ccp-Rev   Ccp-Rev   Ccp-Rev
(US/Central)
04/30 00:00      0.07      5.23      5.26       138     12.25
04/30 01:00      0.10      5.25      5.28       140     12.25
04/30 02:00      0.03      5.25      5.29       140     12.17
04/30 03:00      0.03      5.28      5.30       143     12.17
04/30 04:00      0.01      5.31      5.31       146     12.17
04/30 05:00      0.01      5.35      5.32       151     12.17
04/30 06:00      0.00      5.37      5.33       153     12.17
04/30 07:00      0.00      5.41      5.36       157     12.17
04/30 08:00      0.00      5.43      5.38       159     12.17
04/30 09:00      0.00      5.44      5.41       160     12.17
04/30 10:00      0.00      5.48      5.44       165     12.25
04/30 11:00      0.00      5.51      5.47       168     12.57
04/30 12:00      0.00      5.54      5.50       172     12.65
04/30 13:00      0.00      5.57      5.53       175     12.73
04/30 14:00      0.01      5.61      5.56       180     12.73
04/30 15:00      0.00      5.64      5.67       183     12.73
04/30 16:00      0.00      5.67      5.72       187     12.65
04/30 17:00      0.00      5.73      5.77       194     12.65
04/30 18:00      0.00      5.78      5.82       200     12.57
04/30 19:00      0.00      5.82      5.88       205     12.41
04/30 20:00      0.00      5.86      5.93       210     12.33
04/30 21:00      0.00      5.93      5.99       217     12.25
04/30 22:00      0.00      5.98      6.04       224     12.25
04/30 23:00      ----      ----      ----      ----      ----